Jiaoxian, China
Current Conditions -  °F | °C
As of 2:00 AM on Wednesday 28 Jan 2015 (Local Time) from ZSQD Reporting Station
Clear Clear  
Wind Chill: -11°   Ceiling: Unl
Heat Index: -5°   Visibility: 6mi
Dew Point: -13°   Wind: 11mph
Humidity: 54%   Direction: 350°N
Pressure: 30.56"   Gusts: NA
Location:  36.28°N, 120°E
Report Text: ZSQD 271800Z 35005MPS CAVOK M05/M13 Q1035 NOSIG
Loading
Personal Weather Stations






























Interactive Weather Map New forecast layout! Learn more

10-Day Weather Forecast

Advertisements
Track Severe Weather on mobile